createdAt,value
2023-01-13T00:00:41.197Z,13.92
2023-01-13T00:03:45.005Z,13.71
2023-01-13T00:06:48.318Z,13.80
2023-01-13T00:09:51.714Z,13.87
2023-01-13T00:12:54.922Z,13.55
2023-01-13T00:16:03.256Z,13.53
2023-01-13T00:19:06.541Z,13.46
2023-01-13T00:22:09.707Z,13.60
2023-01-13T00:25:13.069Z,13.68
2023-01-13T00:28:16.493Z,13.78
2023-01-13T00:31:21.684Z,13.68
2023-01-13T00:34:25.234Z,13.44
2023-01-13T00:37:28.485Z,13.41
2023-01-13T00:40:31.719Z,13.47
2023-01-13T00:43:36.290Z,13.70
2023-01-13T00:46:39.741Z,13.43
2023-01-13T00:49:43.172Z,13.63
2023-01-13T00:52:46.360Z,13.53
2023-01-13T00:55:51.990Z,13.64
2023-01-13T00:58:58.810Z,13.48
2023-01-13T01:02:02.383Z,13.45
2023-01-13T01:05:07.233Z,13.27
2023-01-13T01:08:13.643Z,13.07
2023-01-13T01:11:28.100Z,13.08
2023-01-13T01:14:31.391Z,12.76
2023-01-13T01:17:34.672Z,12.78
2023-01-13T01:20:38.521Z,12.70
2023-01-13T01:23:42.462Z,12.84
2023-01-13T01:26:45.778Z,12.44
2023-01-13T01:29:49.052Z,12.78
2023-01-13T01:32:52.388Z,12.50
2023-01-13T01:35:57.467Z,12.80
2023-01-13T01:39:01.139Z,12.69
2023-01-13T01:42:06.171Z,12.61
2023-01-13T01:45:20.631Z,12.42
2023-01-13T01:48:25.716Z,12.47
2023-01-13T01:51:30.881Z,12.74
2023-01-13T01:54:38.912Z,12.75
2023-01-13T01:57:58.982Z,12.60
2023-01-13T02:01:02.960Z,12.35
2023-01-13T02:04:21.808Z,12.38
2023-01-13T02:07:31.611Z,12.30
2023-01-13T02:10:35.091Z,12.33
2023-01-13T02:13:38.666Z,12.35
2023-01-13T02:16:54.637Z,12.54
2023-01-13T02:20:20.813Z,11.95
2023-01-13T02:23:53.059Z,11.78
2023-01-13T02:27:20.456Z,11.43
2023-01-13T02:30:41.826Z,11.39
2023-01-13T02:33:58.298Z,11.36
2023-01-13T02:37:10.997Z,11.11
2023-01-13T02:40:27.783Z,11.04
2023-01-13T02:43:35.087Z,11.39
2023-01-13T02:46:56.239Z,10.95
2023-01-13T02:50:12.406Z,11.13
2023-01-13T02:53:30.841Z,10.80
2023-01-13T02:56:37.180Z,10.76
2023-01-13T02:59:42.257Z,10.71
2023-01-13T03:02:45.777Z,10.86
2023-01-13T03:05:54.224Z,10.78
2023-01-13T03:09:02.801Z,10.58
2023-01-13T03:12:32.481Z,10.48
2023-01-13T03:16:04.553Z,10.57
2023-01-13T03:19:31.151Z,10.56
2023-01-13T03:23:05.812Z,10.63
2023-01-13T03:26:16.527Z,10.51
2023-01-13T03:29:28.670Z,10.42
2023-01-13T03:32:44.440Z,10.48
2023-01-13T03:35:51.675Z,10.69
2023-01-13T03:38:59.990Z,10.08
2023-01-13T03:42:10.845Z,10.19
2023-01-13T03:45:17.467Z,9.62
2023-01-13T03:48:22.245Z,9.89
2023-01-13T03:51:27.448Z,9.59
2023-01-13T03:54:32.158Z,9.87
2023-01-13T03:57:39.497Z,9.83
2023-01-13T04:01:04.015Z,9.60
2023-01-13T04:04:35.167Z,9.90
2023-01-13T04:07:49.028Z,9.63
2023-01-13T04:11:12.814Z,9.74
2023-01-13T04:14:17.505Z,9.55
2023-01-13T04:17:20.967Z,9.09
2023-01-13T04:20:24.583Z,9.07
2023-01-13T04:23:28.637Z,9.46
2023-01-13T04:26:31.945Z,9.30
2023-01-13T04:29:35.338Z,9.08
2023-01-13T04:32:39.903Z,8.99
2023-01-13T04:35:44.823Z,9.17
2023-01-13T04:38:48.090Z,8.93
2023-01-13T04:41:51.347Z,8.91
2023-01-13T04:44:54.652Z,8.67
2023-01-13T04:47:57.927Z,8.81
2023-01-13T04:51:01.230Z,8.74
2023-01-13T04:54:04.855Z,9.03
2023-01-13T04:57:08.260Z,8.82
2023-01-13T05:00:13.445Z,8.62
2023-01-13T05:03:16.920Z,8.49
2023-01-13T05:06:20.117Z,8.50
2023-01-13T05:09:23.337Z,8.10
2023-01-13T05:12:26.598Z,8.23
2023-01-13T05:15:29.857Z,8.15
2023-01-13T05:18:33.199Z,8.29
2023-01-13T05:21:36.834Z,8.31
2023-01-13T05:24:40.270Z,8.28
2023-01-13T05:27:43.589Z,7.94
2023-01-13T05:30:48.104Z,7.93
2023-01-13T05:33:51.557Z,7.66
2023-01-13T05:36:54.803Z,7.60
2023-01-13T05:39:58.193Z,7.55
2023-01-13T05:43:05.604Z,7.54
2023-01-13T05:46:13.066Z,7.51
2023-01-13T05:49:16.313Z,7.44
2023-01-13T05:52:19.618Z,7.78
2023-01-13T05:55:22.826Z,7.73
2023-01-13T05:58:27.689Z,7.53
2023-01-13T06:01:31.070Z,7.51
2023-01-13T06:04:34.341Z,7.49
2023-01-13T06:07:37.861Z,7.45
2023-01-13T06:10:41.217Z,6.98
2023-01-13T06:13:44.459Z,7.58
2023-01-13T06:16:47.782Z,7.54
2023-01-13T06:19:54.124Z,7.70
2023-01-13T06:22:57.444Z,7.41
2023-01-13T06:26:12.963Z,7.67
2023-01-13T06:29:16.201Z,7.68
2023-01-13T06:32:29.532Z,7.73
2023-01-13T06:35:35.075Z,7.55
2023-01-13T06:38:42.263Z,7.54
2023-01-13T06:41:46.005Z,7.60
2023-01-13T06:44:51.113Z,7.15
2023-01-13T06:47:54.423Z,6.92
2023-01-13T06:50:57.586Z,6.95
2023-01-13T06:54:00.772Z,7.22
2023-01-13T06:57:04.021Z,6.78
2023-01-13T07:00:08.032Z,6.87
2023-01-13T07:03:16.396Z,7.04
2023-01-13T07:06:19.793Z,6.85
2023-01-13T07:09:22.924Z,6.69
2023-01-13T07:12:26.302Z,6.65
2023-01-13T07:15:29.484Z,6.86
2023-01-13T07:18:34.330Z,6.78
2023-01-13T07:21:37.574Z,6.75
2023-01-13T07:24:43.206Z,6.52
2023-01-13T07:27:46.534Z,6.59
2023-01-13T07:30:49.716Z,6.54
2023-01-13T07:33:53.036Z,6.59
2023-01-13T07:36:56.245Z,6.81
2023-01-13T07:39:59.441Z,6.67
2023-01-13T07:43:02.710Z,6.60
2023-01-13T07:46:08.150Z,6.35
2023-01-13T07:49:11.457Z,6.66
2023-01-13T07:52:14.722Z,6.59
2023-01-13T07:55:17.877Z,6.69
2023-01-13T07:58:21.077Z,6.70
2023-01-13T08:01:24.348Z,6.83
2023-01-13T08:04:27.596Z,7.02
2023-01-13T08:07:30.838Z,6.71
2023-01-13T08:10:34.120Z,6.70
2023-01-13T08:13:37.665Z,6.86
2023-01-13T08:16:40.854Z,6.68
2023-01-13T08:19:44.076Z,6.66
2023-01-13T08:22:49.532Z,6.66
2023-01-13T08:25:52.885Z,6.56
2023-01-13T08:28:58.134Z,6.71
2023-01-13T08:32:01.414Z,6.72
2023-01-13T08:35:04.781Z,6.64
2023-01-13T08:38:08.548Z,6.71
2023-01-13T08:41:14.204Z,6.60
2023-01-13T08:44:17.495Z,6.79
2023-01-13T08:47:21.132Z,6.63
2023-01-13T08:50:24.478Z,7.06
2023-01-13T08:53:27.864Z,6.96
2023-01-13T08:56:34.208Z,7.03
2023-01-13T08:59:39.780Z,6.71
2023-01-13T09:02:43.258Z,6.41
2023-01-13T09:05:46.497Z,6.48
2023-01-13T09:08:49.895Z,6.72
2023-01-13T09:11:53.125Z,6.33
2023-01-13T09:14:56.532Z,6.52
2023-01-13T09:17:59.823Z,6.38
2023-01-13T09:21:03.118Z,6.26
2023-01-13T09:24:06.518Z,6.13
2023-01-13T09:27:14.847Z,6.22
2023-01-13T09:30:18.272Z,6.29
2023-01-13T09:33:21.490Z,6.20
2023-01-13T09:36:24.659Z,6.39
2023-01-13T09:39:28.035Z,6.17
2023-01-13T09:42:55.363Z,6.14
2023-01-13T09:46:08.151Z,6.29
2023-01-13T09:49:32.261Z,6.44
2023-01-13T09:52:38.353Z,6.37
2023-01-13T09:55:41.539Z,6.17
2023-01-13T09:58:46.157Z,5.78
2023-01-13T10:01:55.833Z,5.76
2023-01-13T10:05:11.039Z,5.89
2023-01-13T10:08:25.612Z,6.16
2023-01-13T10:11:40.383Z,6.14
2023-01-13T10:14:55.429Z,6.16
2023-01-13T10:18:05.776Z,6.19
2023-01-13T10:21:29.502Z,6.14
2023-01-13T10:24:47.452Z,5.98
2023-01-13T10:27:53.621Z,5.85
2023-01-13T10:30:56.928Z,5.57
2023-01-13T10:34:02.522Z,5.80
2023-01-13T10:37:06.691Z,5.68
2023-01-13T10:40:18.301Z,5.78
2023-01-13T10:43:22.246Z,5.68
2023-01-13T10:46:25.628Z,5.73
2023-01-13T10:49:35.793Z,5.90
2023-01-13T10:52:41.315Z,5.68
2023-01-13T10:55:44.638Z,5.56
2023-01-13T10:58:47.850Z,5.33
2023-01-13T11:02:13.080Z,5.69
2023-01-13T11:05:26.298Z,5.48
2023-01-13T11:08:43.001Z,5.41
2023-01-13T11:11:46.721Z,5.28
2023-01-13T11:14:50.610Z,5.07
2023-01-13T11:18:04.183Z,5.21
2023-01-13T11:21:39.149Z,4.99
2023-01-13T11:24:56.872Z,4.72
2023-01-13T11:28:31.477Z,4.56
2023-01-13T11:31:40.275Z,4.44
2023-01-13T11:34:46.108Z,4.66
2023-01-13T11:37:58.563Z,4.59
2023-01-13T11:41:44.308Z,4.11
2023-01-13T11:45:11.202Z,4.38
2023-01-13T11:48:20.269Z,3.98
2023-01-13T11:51:36.503Z,4.23
2023-01-13T11:54:57.938Z,4.36
2023-01-13T11:58:20.696Z,4.14
2023-01-13T12:01:36.037Z,4.37
2023-01-13T12:04:47.392Z,4.12
2023-01-13T12:08:05.597Z,3.91
2023-01-13T12:11:31.961Z,4.00
2023-01-13T12:15:01.179Z,4.15
2023-01-13T12:18:10.663Z,3.88
2023-01-13T12:21:26.791Z,3.89
2023-01-13T12:24:44.717Z,3.55
2023-01-13T12:27:52.960Z,3.33
2023-01-13T12:31:01.047Z,3.70
2023-01-13T12:34:07.005Z,3.80
2023-01-13T12:37:27.147Z,3.85
2023-01-13T12:40:49.137Z,3.97
2023-01-13T12:43:53.721Z,3.81
2023-01-13T12:46:58.667Z,4.06
2023-01-13T12:50:37.715Z,3.66
2023-01-13T12:53:41.158Z,3.64
2023-01-13T12:56:45.371Z,3.50
2023-01-13T13:00:00.512Z,3.63
2023-01-13T13:03:12.623Z,3.72
2023-01-13T13:06:21.334Z,3.39
2023-01-13T13:09:27.514Z,3.57
2023-01-13T13:12:42.893Z,3.63
2023-01-13T13:15:48.321Z,3.71
2023-01-13T13:18:51.532Z,3.75
2023-01-13T13:22:13.210Z,3.79
2023-01-13T13:25:25.013Z,3.56
2023-01-13T13:28:29.330Z,3.96
2023-01-13T13:31:57.214Z,3.81
2023-01-13T13:35:37.842Z,3.69
2023-01-13T13:38:58.304Z,3.78
2023-01-13T13:42:23.345Z,3.58
2023-01-13T13:45:28.050Z,3.87
2023-01-13T13:48:31.380Z,4.02
2023-01-13T13:51:40.076Z,3.89
2023-01-13T13:54:45.904Z,4.03
2023-01-13T13:57:51.740Z,3.66
2023-01-13T14:00:55.724Z,3.70
2023-01-13T14:04:23.468Z,4.13
2023-01-13T14:07:26.697Z,4.18
2023-01-13T14:10:36.443Z,3.67
2023-01-13T14:13:39.964Z,4.09
2023-01-13T14:16:43.528Z,3.78
2023-01-13T14:19:56.511Z,3.97
2023-01-13T14:22:59.751Z,4.04
2023-01-13T14:26:10.847Z,4.23
2023-01-13T14:29:17.772Z,4.23
2023-01-13T14:32:23.595Z,4.16
2023-01-13T14:35:26.954Z,4.22
2023-01-13T14:38:30.219Z,4.02
2023-01-13T14:41:34.265Z,3.96
2023-01-13T14:44:37.751Z,4.50
2023-01-13T14:47:41.018Z,4.66
2023-01-13T14:50:47.210Z,4.72
2023-01-13T14:53:50.769Z,4.37
2023-01-13T14:57:06.820Z,4.76
2023-01-13T15:00:15.790Z,5.12
2023-01-13T15:03:20.718Z,5.18
2023-01-13T15:06:25.439Z,5.41
2023-01-13T15:09:48.785Z,5.23
2023-01-13T15:12:53.987Z,5.32
2023-01-13T15:16:01.661Z,5.51
2023-01-13T15:19:04.931Z,5.43
2023-01-13T15:22:08.140Z,5.39
2023-01-13T15:25:11.538Z,6.01
2023-01-13T15:28:24.996Z,5.76
2023-01-13T15:31:28.945Z,5.96
2023-01-13T15:34:32.127Z,6.12
2023-01-13T15:37:35.476Z,6.04
2023-01-13T15:40:38.708Z,5.71
2023-01-13T15:43:41.978Z,5.93
2023-01-13T15:46:45.541Z,6.41
2023-01-13T15:49:49.874Z,6.48
2023-01-13T15:52:55.414Z,6.50
2023-01-13T15:55:59.637Z,6.89
2023-01-13T15:59:03.365Z,6.71
2023-01-13T16:02:13.156Z,6.82
2023-01-13T16:05:16.828Z,7.01
2023-01-13T16:08:22.794Z,7.09
2023-01-13T16:11:26.048Z,7.20
2023-01-13T16:14:32.395Z,7.20
2023-01-13T16:17:35.881Z,7.14
2023-01-13T16:20:39.065Z,7.12
2023-01-13T16:23:42.677Z,7.14
2023-01-13T16:26:46.304Z,7.59
2023-01-13T16:29:50.218Z,7.37
2023-01-13T16:32:53.823Z,7.48
2023-01-13T16:36:09.954Z,8.00
2023-01-13T16:39:24.601Z,8.14
2023-01-13T16:42:27.785Z,8.02
2023-01-13T16:45:34.843Z,7.58
2023-01-13T16:48:38.031Z,7.89
2023-01-13T16:51:41.563Z,8.06
2023-01-13T16:54:44.832Z,8.06
2023-01-13T16:57:49.233Z,8.20
2023-01-13T17:00:52.483Z,8.10
2023-01-13T17:03:59.487Z,8.16
2023-01-13T17:07:05.376Z,8.41
2023-01-13T17:10:09.057Z,8.39
2023-01-13T17:13:16.457Z,8.20
2023-01-13T17:16:22.595Z,8.56
2023-01-13T17:19:25.948Z,8.96
2023-01-13T17:22:29.717Z,9.42
2023-01-13T17:25:32.879Z,8.80
2023-01-13T17:28:36.878Z,8.44
2023-01-13T17:31:40.136Z,8.73
2023-01-13T17:34:45.986Z,8.52
2023-01-13T17:37:54.454Z,8.96
2023-01-13T17:41:04.810Z,8.99
2023-01-13T17:44:07.978Z,8.95
2023-01-13T17:47:12.415Z,9.49
2023-01-13T17:50:16.930Z,9.14
2023-01-13T17:53:20.879Z,9.35
2023-01-13T17:56:24.049Z,9.07
2023-01-13T17:59:27.519Z,9.66
2023-01-13T18:02:30.852Z,9.46
2023-01-13T18:05:34.111Z,9.58
2023-01-13T18:08:37.373Z,9.81
2023-01-13T18:11:40.656Z,10.15
2023-01-13T18:14:43.933Z,10.73
2023-01-13T18:17:47.351Z,10.26
2023-01-13T18:20:50.606Z,9.71
2023-01-13T18:23:54.168Z,9.96
2023-01-13T18:26:57.548Z,10.40
2023-01-13T18:30:01.550Z,10.48
2023-01-13T18:33:04.821Z,10.90
2023-01-13T18:36:09.041Z,10.59
2023-01-13T18:39:12.266Z,10.92
2023-01-13T18:42:17.752Z,11.43
2023-01-13T18:45:23.709Z,11.15
2023-01-13T18:48:26.861Z,11.56
2023-01-13T18:51:30.008Z,10.87
2023-01-13T18:54:33.441Z,11.74
2023-01-13T18:57:37.517Z,11.98
2023-01-13T19:00:40.711Z,11.97
2023-01-13T19:03:43.938Z,11.93
2023-01-13T19:06:50.450Z,11.72
2023-01-13T19:09:54.143Z,12.29
2023-01-13T19:12:57.568Z,12.25
2023-01-13T19:16:08.639Z,12.64
2023-01-13T19:19:12.069Z,12.27
2023-01-13T19:22:17.544Z,12.45
2023-01-13T19:25:20.831Z,12.45
2023-01-13T19:28:24.206Z,12.36
2023-01-13T19:31:27.502Z,12.38
2023-01-13T19:34:30.699Z,12.37
2023-01-13T19:37:36.227Z,12.72
2023-01-13T19:40:39.450Z,13.27
2023-01-13T19:43:42.825Z,12.82
2023-01-13T19:46:46.074Z,11.72
2023-01-13T19:49:49.402Z,12.32
2023-01-13T19:52:53.909Z,12.43
2023-01-13T19:55:57.475Z,11.87
2023-01-13T19:59:00.637Z,11.79
2023-01-13T20:02:04.103Z,12.62
2023-01-13T20:05:07.930Z,12.94
2023-01-13T20:08:12.444Z,12.16
2023-01-13T20:11:15.655Z,12.53
2023-01-13T20:14:19.042Z,12.35
2023-01-13T20:17:22.815Z,12.79
2023-01-13T20:20:26.552Z,12.30
2023-01-13T20:23:29.753Z,12.67
2023-01-13T20:26:33.415Z,12.78
2023-01-13T20:29:36.724Z,13.22
2023-01-13T20:32:42.362Z,13.17
2023-01-13T20:35:45.654Z,12.60
2023-01-13T20:38:48.915Z,13.04
2023-01-13T20:41:52.161Z,13.80
2023-01-13T20:44:55.606Z,14.04
2023-01-13T20:47:58.814Z,13.69
2023-01-13T20:51:02.003Z,13.48
2023-01-13T20:54:05.476Z,13.83
2023-01-13T20:57:11.063Z,14.66
2023-01-13T21:00:14.581Z,14.70
2023-01-13T21:03:17.869Z,14.54
2023-01-13T21:06:21.100Z,15.82
2023-01-13T21:09:24.976Z,14.77
2023-01-13T21:12:29.232Z,14.71
2023-01-13T21:15:32.496Z,15.00
2023-01-13T21:18:38.612Z,14.84
2023-01-13T21:21:41.933Z,13.48
2023-01-13T21:24:45.173Z,14.50
2023-01-13T21:27:48.461Z,14.13
2023-01-13T21:30:52.039Z,14.11
2023-01-13T21:33:56.570Z,14.27
2023-01-13T21:36:59.738Z,14.52
2023-01-13T21:40:03.132Z,14.34
2023-01-13T21:43:06.370Z,14.14
2023-01-13T21:46:18.570Z,13.29
2023-01-13T21:49:22.088Z,13.18
2023-01-13T21:52:27.082Z,13.57
2023-01-13T21:55:30.394Z,13.57
2023-01-13T21:58:33.611Z,13.49
2023-01-13T22:01:36.805Z,13.76
2023-01-13T22:05:01.158Z,14.14
2023-01-13T22:08:04.877Z,15.43
2023-01-13T22:11:08.192Z,14.57
2023-01-13T22:14:11.392Z,13.92
2023-01-13T22:17:19.099Z,14.62
2023-01-13T22:20:23.284Z,13.66
2023-01-13T22:23:27.153Z,13.32
2023-01-13T22:26:30.629Z,14.28
2023-01-13T22:29:33.934Z,14.70
2023-01-13T22:32:38.186Z,15.34
2023-01-13T22:35:41.701Z,15.34
2023-01-13T22:38:45.889Z,14.28
2023-01-13T22:41:49.644Z,13.68
2023-01-13T22:44:52.862Z,13.11
2023-01-13T22:47:57.920Z,13.22
2023-01-13T22:51:17.882Z,13.02
2023-01-13T22:54:21.696Z,12.69
2023-01-13T22:57:27.189Z,12.48
2023-01-13T23:00:30.793Z,12.27
2023-01-13T23:03:34.199Z,12.28
2023-01-13T23:06:37.813Z,12.15
2023-01-13T23:09:41.173Z,12.38
2023-01-13T23:12:44.434Z,12.18
2023-01-13T23:15:47.650Z,12.07
2023-01-13T23:18:51.152Z,11.83
2023-01-13T23:21:55.502Z,11.60
2023-01-13T23:24:58.961Z,11.74
2023-01-13T23:28:02.511Z,11.85
2023-01-13T23:31:13.105Z,11.55
2023-01-13T23:34:16.351Z,11.69
2023-01-13T23:37:19.630Z,11.47
2023-01-13T23:40:23.046Z,11.25
2023-01-13T23:43:27.473Z,11.60
2023-01-13T23:46:31.867Z,11.23
2023-01-13T23:49:35.315Z,11.16
2023-01-13T23:52:40.957Z,10.69
2023-01-13T23:55:44.248Z,10.88
2023-01-13T23:58:47.626Z,10.81
